sensor_id;sensor_type;location;lat;lon;timestamp;pressure;altitude;pressure_sealevel;temperature;humidity
15604;BME280;7902;49.042;9.092;2023-04-25T00:00:18;98459.66;;;14.52;54.27
15604;BME280;7902;49.042;9.092;2023-04-25T00:02:44;98471.75;;;14.54;55.03
15604;BME280;7902;49.042;9.092;2023-04-25T00:05:10;98464.09;;;14.51;54.67
15604;BME280;7902;49.042;9.092;2023-04-25T00:07:36;98473.44;;;14.45;54.63
15604;BME280;7902;49.042;9.092;2023-04-25T00:10:03;98476.09;;;14.45;54.07
15604;BME280;7902;49.042;9.092;2023-04-25T00:12:29;98472.69;;;14.35;54.63
15604;BME280;7902;49.042;9.092;2023-04-25T00:14:55;98469.66;;;14.30;54.64
15604;BME280;7902;49.042;9.092;2023-04-25T00:17:23;98469.66;;;14.30;54.51
15604;BME280;7902;49.042;9.092;2023-04-25T00:19:50;98472.31;;;14.30;55.07
15604;BME280;7902;49.042;9.092;2023-04-25T00:22:16;98473.56;;;14.36;54.32
15604;BME280;7902;49.042;9.092;2023-04-25T00:24:43;98464.63;;;14.37;54.28
15604;BME280;7902;49.042;9.092;2023-04-25T00:27:09;98463.56;;;14.30;54.95
15604;BME280;7902;49.042;9.092;2023-04-25T00:29:34;98460.34;;;14.36;54.16
15604;BME280;7902;49.042;9.092;2023-04-25T00:32:01;98459.25;;;14.29;54.99
15604;BME280;7902;49.042;9.092;2023-04-25T00:34:27;98461.03;;;14.28;54.32
15604;BME280;7902;49.042;9.092;2023-04-25T00:36:53;98455.09;;;14.26;54.48
15604;BME280;7902;49.042;9.092;2023-04-25T00:39:19;98451.25;;;14.21;54.86
15604;BME280;7902;49.042;9.092;2023-04-25T00:41:45;98454.41;;;14.24;54.27
15604;BME280;7902;49.042;9.092;2023-04-25T00:44:11;98452.59;;;14.25;54.41
15604;BME280;7902;49.042;9.092;2023-04-25T00:46:38;98453.44;;;14.25;54.27
15604;BME280;7902;49.042;9.092;2023-04-25T00:49:04;98448.34;;;14.14;54.33
15604;BME280;7902;49.042;9.092;2023-04-25T00:51:31;98449.06;;;14.16;54.56
15604;BME280;7902;49.042;9.092;2023-04-25T00:53:58;98450.63;;;14.09;54.87
15604;BME280;7902;49.042;9.092;2023-04-25T00:56:25;98450.09;;;14.05;55.05
15604;BME280;7902;49.042;9.092;2023-04-25T00:58:53;98448.66;;;14.11;54.41
15604;BME280;7902;49.042;9.092;2023-04-25T01:01:22;98450.78;;;14.07;54.47
15604;BME280;7902;49.042;9.092;2023-04-25T01:03:49;98448.22;;;13.98;54.84
15604;BME280;7902;49.042;9.092;2023-04-25T01:06:16;98446.53;;;13.97;54.81
15604;BME280;7902;49.042;9.092;2023-04-25T01:08:42;98446.16;;;13.92;55.22
15604;BME280;7902;49.042;9.092;2023-04-25T01:11:08;98437.91;;;13.95;54.83
15604;BME280;7902;49.042;9.092;2023-04-25T01:13:34;98434.69;;;13.83;55.33
15604;BME280;7902;49.042;9.092;2023-04-25T01:16:01;98433.25;;;13.89;54.88
15604;BME280;7902;49.042;9.092;2023-04-25T01:18:28;98432.69;;;13.85;54.38
15604;BME280;7902;49.042;9.092;2023-04-25T01:20:54;98428.50;;;13.92;54.83
15604;BME280;7902;49.042;9.092;2023-04-25T01:23:21;98435.22;;;13.87;54.35
15604;BME280;7902;49.042;9.092;2023-04-25T01:25:50;98429.22;;;13.85;54.43
15604;BME280;7902;49.042;9.092;2023-04-25T01:28:17;98425.25;;;13.98;54.84
15604;BME280;7902;49.042;9.092;2023-04-25T01:30:43;98434.31;;;13.96;54.67
15604;BME280;7902;49.042;9.092;2023-04-25T01:33:09;98428.34;;;13.94;54.76
15604;BME280;7902;49.042;9.092;2023-04-25T01:35:36;98424.59;;;13.96;54.14
15604;BME280;7902;49.042;9.092;2023-04-25T01:38:02;98431.38;;;13.99;54.57
15604;BME280;7902;49.042;9.092;2023-04-25T01:40:29;98429.34;;;13.93;54.15
15604;BME280;7902;49.042;9.092;2023-04-25T01:42:55;98428.06;;;13.97;54.87
15604;BME280;7902;49.042;9.092;2023-04-25T01:45:21;98419.63;;;13.93;54.64
15604;BME280;7902;49.042;9.092;2023-04-25T01:47:47;98417.78;;;13.94;55.07
15604;BME280;7902;49.042;9.092;2023-04-25T01:50:16;98419.75;;;13.92;54.98
15604;BME280;7902;49.042;9.092;2023-04-25T01:52:43;98423.75;;;13.96;54.75
15604;BME280;7902;49.042;9.092;2023-04-25T01:55:09;98417.13;;;13.92;54.12
15604;BME280;7902;49.042;9.092;2023-04-25T01:57:35;98410.56;;;13.96;54.58
15604;BME280;7902;49.042;9.092;2023-04-25T02:00:03;98409.88;;;13.94;54.66
15604;BME280;7902;49.042;9.092;2023-04-25T02:02:30;98408.56;;;13.80;55.04
15604;BME280;7902;49.042;9.092;2023-04-25T02:04:56;98408.22;;;13.93;54.61
15604;BME280;7902;49.042;9.092;2023-04-25T02:07:22;98412.16;;;13.89;54.47
15604;BME280;7902;49.042;9.092;2023-04-25T02:09:48;98412.16;;;13.89;54.23
15604;BME280;7902;49.042;9.092;2023-04-25T02:12:14;98414.69;;;13.81;54.71
15604;BME280;7902;49.042;9.092;2023-04-25T02:14:40;98415.97;;;13.77;54.52
15604;BME280;7902;49.042;9.092;2023-04-25T02:17:06;98418.00;;;13.83;54.68
15604;BME280;7902;49.042;9.092;2023-04-25T02:19:32;98415.28;;;13.75;54.68
15604;BME280;7902;49.042;9.092;2023-04-25T02:21:58;98421.38;;;13.75;54.92
15604;BME280;7902;49.042;9.092;2023-04-25T02:24:24;98417.72;;;13.86;54.50
15604;BME280;7902;49.042;9.092;2023-04-25T02:26:50;98409.25;;;13.82;54.51
15604;BME280;7902;49.042;9.092;2023-04-25T02:29:16;98416.16;;;13.93;54.82
15604;BME280;7902;49.042;9.092;2023-04-25T02:31:42;98412.94;;;13.89;54.21
15604;BME280;7902;49.042;9.092;2023-04-25T02:34:08;98413.19;;;13.96;55.12
15604;BME280;7902;49.042;9.092;2023-04-25T02:36:34;98408.91;;;13.95;54.42
15604;BME280;7902;49.042;9.092;2023-04-25T02:39:01;98404.50;;;13.86;54.80
15604;BME280;7902;49.042;9.092;2023-04-25T02:41:27;98407.84;;;13.88;54.99
15604;BME280;7902;49.042;9.092;2023-04-25T02:43:53;98413.84;;;13.80;54.72
15604;BME280;7902;49.042;9.092;2023-04-25T02:46:18;98413.91;;;13.71;55.15
15604;BME280;7902;49.042;9.092;2023-04-25T02:48:44;98410.28;;;13.72;55.70
15604;BME280;7902;49.042;9.092;2023-04-25T02:51:10;98403.84;;;13.84;55.35
15604;BME280;7902;49.042;9.092;2023-04-25T02:53:36;98405.53;;;13.75;55.09
15604;BME280;7902;49.042;9.092;2023-04-25T02:56:02;98402.19;;;13.83;55.17
15604;BME280;7902;49.042;9.092;2023-04-25T02:58:28;98399.22;;;13.68;55.36
15604;BME280;7902;49.042;9.092;2023-04-25T03:00:54;98399.16;;;13.78;55.05
15604;BME280;7902;49.042;9.092;2023-04-25T03:03:20;98400.25;;;13.75;55.14
15604;BME280;7902;49.042;9.092;2023-04-25T03:05:48;98393.88;;;13.78;55.19
15604;BME280;7902;49.042;9.092;2023-04-25T03:08:16;98394.47;;;13.72;55.02
15604;BME280;7902;49.042;9.092;2023-04-25T03:10:43;98396.00;;;13.74;54.19
15604;BME280;7902;49.042;9.092;2023-04-25T03:13:09;98403.06;;;13.74;55.03
15604;BME280;7902;49.042;9.092;2023-04-25T03:15:35;98390.06;;;13.62;55.60
15604;BME280;7902;49.042;9.092;2023-04-25T03:18:02;98395.03;;;13.66;55.43
15604;BME280;7902;49.042;9.092;2023-04-25T03:20:28;98403.97;;;13.65;55.40
15604;BME280;7902;49.042;9.092;2023-04-25T03:22:54;98394.31;;;13.73;54.70
15604;BME280;7902;49.042;9.092;2023-04-25T03:25:20;98401.72;;;13.70;55.02
15604;BME280;7902;49.042;9.092;2023-04-25T03:27:45;98393.75;;;13.79;54.80
15604;BME280;7902;49.042;9.092;2023-04-25T03:30:11;98385.88;;;13.70;55.49
15604;BME280;7902;49.042;9.092;2023-04-25T03:32:37;98391.69;;;13.73;55.72
15604;BME280;7902;49.042;9.092;2023-04-25T03:35:04;98392.03;;;13.60;55.97
15604;BME280;7902;49.042;9.092;2023-04-25T03:37:31;98388.22;;;13.73;55.90
15604;BME280;7902;49.042;9.092;2023-04-25T03:39:56;98391.75;;;13.63;56.09
15604;BME280;7902;49.042;9.092;2023-04-25T03:42:22;98390.16;;;13.71;55.39
15604;BME280;7902;49.042;9.092;2023-04-25T03:44:49;98389.09;;;13.63;55.49
15604;BME280;7902;49.042;9.092;2023-04-25T03:47:15;98389.53;;;13.59;55.66
15604;BME280;7902;49.042;9.092;2023-04-25T03:49:41;98389.41;;;13.60;56.04
15604;BME280;7902;49.042;9.092;2023-04-25T03:52:07;98399.13;;;13.60;55.67
15604;BME280;7902;49.042;9.092;2023-04-25T03:54:33;98397.00;;;13.63;55.49
15604;BME280;7902;49.042;9.092;2023-04-25T03:56:59;98397.75;;;13.56;55.69
15604;BME280;7902;49.042;9.092;2023-04-25T03:59:25;98393.91;;;13.50;56.07
15604;BME280;7902;49.042;9.092;2023-04-25T04:01:52;98393.06;;;13.50;56.05
15604;BME280;7902;49.042;9.092;2023-04-25T04:04:18;98397.38;;;13.51;55.35
15604;BME280;7902;49.042;9.092;2023-04-25T04:06:44;98403.56;;;13.59;55.21
15604;BME280;7902;49.042;9.092;2023-04-25T04:09:10;98399.16;;;13.50;55.15
15604;BME280;7902;49.042;9.092;2023-04-25T04:11:37;98400.53;;;13.54;55.38
15604;BME280;7902;49.042;9.092;2023-04-25T04:14:07;98396.75;;;13.57;55.61
15604;BME280;7902;49.042;9.092;2023-04-25T04:16:33;98401.03;;;13.40;55.54
15604;BME280;7902;49.042;9.092;2023-04-25T04:18:59;98393.50;;;13.45;55.35
15604;BME280;7902;49.042;9.092;2023-04-25T04:21:25;98395.41;;;13.53;55.32
15604;BME280;7902;49.042;9.092;2023-04-25T04:23:53;98403.25;;;13.35;56.04
15604;BME280;7902;49.042;9.092;2023-04-25T04:26:20;98407.25;;;13.39;55.17
15604;BME280;7902;49.042;9.092;2023-04-25T04:28:49;98412.97;;;13.35;55.54
15604;BME280;7902;49.042;9.092;2023-04-25T04:31:20;98408.78;;;13.42;55.86
15604;BME280;7902;49.042;9.092;2023-04-25T04:33:47;98411.00;;;13.46;55.38
15604;BME280;7902;49.042;9.092;2023-04-25T04:36:13;98408.44;;;13.54;54.87
15604;BME280;7902;49.042;9.092;2023-04-25T04:38:39;98401.50;;;13.53;55.05
15604;BME280;7902;49.042;9.092;2023-04-25T04:41:06;98400.00;;;13.51;55.54
15604;BME280;7902;49.042;9.092;2023-04-25T04:43:32;98412.09;;;13.44;55.75
15604;BME280;7902;49.042;9.092;2023-04-25T04:46:02;98409.63;;;13.33;55.90
15604;BME280;7902;49.042;9.092;2023-04-25T04:48:31;98420.19;;;13.33;55.92
15604;BME280;7902;49.042;9.092;2023-04-25T04:50:58;98425.03;;;13.37;55.78
15604;BME280;7902;49.042;9.092;2023-04-25T04:53:24;98429.31;;;13.38;55.62
15604;BME280;7902;49.042;9.092;2023-04-25T04:55:50;98436.13;;;13.41;56.18
15604;BME280;7902;49.042;9.092;2023-04-25T04:58:16;98439.03;;;13.38;55.66
15604;BME280;7902;49.042;9.092;2023-04-25T05:00:42;98434.38;;;13.32;55.82
15604;BME280;7902;49.042;9.092;2023-04-25T05:03:08;98435.56;;;13.37;55.99
15604;BME280;7902;49.042;9.092;2023-04-25T05:05:35;98441.03;;;13.26;56.39
15604;BME280;7902;49.042;9.092;2023-04-25T05:08:01;98442.97;;;13.24;55.97
15604;BME280;7902;49.042;9.092;2023-04-25T05:10:26;98442.72;;;13.27;56.08
15604;BME280;7902;49.042;9.092;2023-04-25T05:12:52;98440.50;;;13.23;56.40
15604;BME280;7902;49.042;9.092;2023-04-25T05:15:18;98440.06;;;13.27;56.12
15604;BME280;7902;49.042;9.092;2023-04-25T05:17:44;98445.16;;;13.38;55.85
15604;BME280;7902;49.042;9.092;2023-04-25T05:20:10;98442.72;;;13.27;56.28
15604;BME280;7902;49.042;9.092;2023-04-25T05:22:36;98443.78;;;13.34;56.04
15604;BME280;7902;49.042;9.092;2023-04-25T05:25:02;98444.47;;;13.36;56.27
15604;BME280;7902;49.042;9.092;2023-04-25T05:27:29;98442.13;;;13.33;56.47
15604;BME280;7902;49.042;9.092;2023-04-25T05:29:55;98438.38;;;13.36;56.24
15604;BME280;7902;49.042;9.092;2023-04-25T05:32:20;98446.00;;;13.29;56.12
15604;BME280;7902;49.042;9.092;2023-04-25T05:34:46;98446.97;;;13.28;56.18
15604;BME280;7902;49.042;9.092;2023-04-25T05:37:12;98452.09;;;13.39;56.11
15604;BME280;7902;49.042;9.092;2023-04-25T05:39:38;98451.78;;;13.42;55.64
15604;BME280;7902;49.042;9.092;2023-04-25T05:42:04;98453.47;;;13.43;55.84
15604;BME280;7902;49.042;9.092;2023-04-25T05:44:30;98452.34;;;13.46;56.00
15604;BME280;7902;49.042;9.092;2023-04-25T05:46:56;98448.19;;;13.43;56.21
15604;BME280;7902;49.042;9.092;2023-04-25T05:49:22;98450.31;;;13.67;55.42
15604;BME280;7902;49.042;9.092;2023-04-25T05:51:48;98450.06;;;13.60;56.08
15604;BME280;7902;49.042;9.092;2023-04-25T05:54:14;98453.16;;;13.56;55.86
15604;BME280;7902;49.042;9.092;2023-04-25T05:56:40;98444.69;;;13.52;55.91
15604;BME280;7902;49.042;9.092;2023-04-25T05:59:06;98443.78;;;13.61;55.84
15604;BME280;7902;49.042;9.092;2023-04-25T06:01:32;98442.59;;;13.56;56.44
15604;BME280;7902;49.042;9.092;2023-04-25T06:03:58;98444.50;;;13.63;56.40
15604;BME280;7902;49.042;9.092;2023-04-25T06:06:24;98439.44;;;13.70;55.75
15604;BME280;7902;49.042;9.092;2023-04-25T06:08:49;98441.16;;;13.61;56.24
15604;BME280;7902;49.042;9.092;2023-04-25T06:11:16;98443.22;;;13.68;55.89
15604;BME280;7902;49.042;9.092;2023-04-25T06:13:42;98455.06;;;13.63;56.49
15604;BME280;7902;49.042;9.092;2023-04-25T06:16:07;98448.69;;;13.56;57.08
15604;BME280;7902;49.042;9.092;2023-04-25T06:18:33;98445.06;;;13.57;56.67
15604;BME280;7902;49.042;9.092;2023-04-25T06:20:59;98444.97;;;13.77;55.32
15604;BME280;7902;49.042;9.092;2023-04-25T06:23:25;98445.69;;;13.79;56.17
15604;BME280;7902;49.042;9.092;2023-04-25T06:25:51;98436.09;;;13.78;55.86
15604;BME280;7902;49.042;9.092;2023-04-25T06:28:17;98441.25;;;13.97;55.77
15604;BME280;7902;49.042;9.092;2023-04-25T06:30:43;98441.72;;;14.10;54.98
15604;BME280;7902;49.042;9.092;2023-04-25T06:33:09;98442.69;;;14.09;54.86
15604;BME280;7902;49.042;9.092;2023-04-25T06:35:35;98447.69;;;14.12;55.43
15604;BME280;7902;49.042;9.092;2023-04-25T06:38:01;98447.16;;;14.08;55.83
15604;BME280;7902;49.042;9.092;2023-04-25T06:40:26;98450.28;;;14.22;55.41
15604;BME280;7902;49.042;9.092;2023-04-25T06:42:52;98450.47;;;14.28;55.27
15604;BME280;7902;49.042;9.092;2023-04-25T06:45:18;98454.03;;;14.19;55.71
15604;BME280;7902;49.042;9.092;2023-04-25T06:47:44;98442.81;;;14.17;56.02
15604;BME280;7902;49.042;9.092;2023-04-25T06:50:10;98452.81;;;14.31;55.23
15604;BME280;7902;49.042;9.092;2023-04-25T06:52:36;98452.69;;;14.33;54.69
15604;BME280;7902;49.042;9.092;2023-04-25T06:55:02;98447.16;;;14.36;55.04
15604;BME280;7902;49.042;9.092;2023-04-25T06:57:29;98446.69;;;14.40;54.98
15604;BME280;7902;49.042;9.092;2023-04-25T06:59:55;98454.00;;;14.46;55.22
15604;BME280;7902;49.042;9.092;2023-04-25T07:02:21;98450.38;;;14.47;54.93
15604;BME280;7902;49.042;9.092;2023-04-25T07:04:47;98463.19;;;14.42;54.91
15604;BME280;7902;49.042;9.092;2023-04-25T07:07:13;98458.44;;;14.46;54.56
15604;BME280;7902;49.042;9.092;2023-04-25T07:09:39;98463.13;;;14.52;55.23
15604;BME280;7902;49.042;9.092;2023-04-25T07:12:05;98463.25;;;14.50;54.75
15604;BME280;7902;49.042;9.092;2023-04-25T07:14:31;98472.03;;;14.51;54.70
15604;BME280;7902;49.042;9.092;2023-04-25T07:16:57;98463.66;;;14.56;54.19
15604;BME280;7902;49.042;9.092;2023-04-25T07:19:23;98469.56;;;14.49;55.60
15604;BME280;7902;49.042;9.092;2023-04-25T07:21:52;98466.22;;;14.47;54.49
15604;BME280;7902;49.042;9.092;2023-04-25T07:24:18;98466.75;;;14.51;54.13
15604;BME280;7902;49.042;9.092;2023-04-25T07:26:44;98469.25;;;14.53;54.66
15604;BME280;7902;49.042;9.092;2023-04-25T07:29:10;98475.03;;;14.56;54.90
15604;BME280;7902;49.042;9.092;2023-04-25T07:31:36;98473.38;;;14.55;54.67
15604;BME280;7902;49.042;9.092;2023-04-25T07:34:02;98484.34;;;14.42;54.82
15604;BME280;7902;49.042;9.092;2023-04-25T07:36:28;98480.34;;;14.38;55.06
15604;BME280;7902;49.042;9.092;2023-04-25T07:38:54;98478.31;;;14.50;54.40
15604;BME280;7902;49.042;9.092;2023-04-25T07:41:20;98479.34;;;14.39;55.46
15604;BME280;7902;49.042;9.092;2023-04-25T07:43:45;98484.66;;;14.39;55.02
15604;BME280;7902;49.042;9.092;2023-04-25T07:46:11;98488.63;;;14.43;54.91
15604;BME280;7902;49.042;9.092;2023-04-25T07:48:37;98484.91;;;14.36;55.12
15604;BME280;7902;49.042;9.092;2023-04-25T07:51:03;98492.97;;;14.35;55.17
15604;BME280;7902;49.042;9.092;2023-04-25T07:53:30;98494.69;;;14.36;55.01
15604;BME280;7902;49.042;9.092;2023-04-25T07:55:58;98496.75;;;14.32;55.26
15604;BME280;7902;49.042;9.092;2023-04-25T07:58:23;98493.81;;;14.35;55.66
15604;BME280;7902;49.042;9.092;2023-04-25T08:00:49;98500.66;;;14.28;55.57
15604;BME280;7902;49.042;9.092;2023-04-25T08:03:15;98497.84;;;14.39;54.79
15604;BME280;7902;49.042;9.092;2023-04-25T08:05:41;98496.75;;;14.32;55.57
15604;BME280;7902;49.042;9.092;2023-04-25T08:08:07;98504.97;;;14.29;54.77
15604;BME280;7902;49.042;9.092;2023-04-25T08:10:33;98502.81;;;14.42;54.97
15604;BME280;7902;49.042;9.092;2023-04-25T08:12:59;98503.13;;;14.39;54.48
15604;BME280;7902;49.042;9.092;2023-04-25T08:15:26;98513.38;;;14.42;55.03
15604;BME280;7902;49.042;9.092;2023-04-25T08:17:52;98522.97;;;14.43;54.47
15604;BME280;7902;49.042;9.092;2023-04-25T08:20:17;98520.03;;;14.46;54.34
15604;BME280;7902;49.042;9.092;2023-04-25T08:22:43;98525.88;;;14.50;54.90
15604;BME280;7902;49.042;9.092;2023-04-25T08:25:09;98523.06;;;14.52;54.60
15604;BME280;7902;49.042;9.092;2023-04-25T08:27:35;98529.56;;;14.57;54.97
15604;BME280;7902;49.042;9.092;2023-04-25T08:30:03;98532.66;;;14.53;54.46
15604;BME280;7902;49.042;9.092;2023-04-25T08:32:29;98537.88;;;14.62;53.77
15604;BME280;7902;49.042;9.092;2023-04-25T08:34:55;98542.84;;;14.65;53.62
15604;BME280;7902;49.042;9.092;2023-04-25T08:37:21;98540.13;;;14.57;54.59
15604;BME280;7902;49.042;9.092;2023-04-25T08:39:47;98541.25;;;14.55;53.75
15604;BME280;7902;49.042;9.092;2023-04-25T08:42:15;98542.91;;;14.56;53.73
15604;BME280;7902;49.042;9.092;2023-04-25T08:44:41;98553.72;;;14.62;54.66
15604;BME280;7902;49.042;9.092;2023-04-25T08:47:07;98554.69;;;14.61;54.49
15604;BME280;7902;49.042;9.092;2023-04-25T08:49:33;98554.03;;;14.59;54.33
15604;BME280;7902;49.042;9.092;2023-04-25T08:52:01;98556.13;;;14.56;54.36
15604;BME280;7902;49.042;9.092;2023-04-25T08:54:28;98556.94;;;14.56;53.96
15604;BME280;7902;49.042;9.092;2023-04-25T08:56:55;98559.31;;;14.59;54.53
15604;BME280;7902;49.042;9.092;2023-04-25T08:59:23;98560.22;;;14.68;54.61
15604;BME280;7902;49.042;9.092;2023-04-25T09:01:49;98567.31;;;14.67;54.33
15604;BME280;7902;49.042;9.092;2023-04-25T09:04:15;98567.00;;;14.70;54.11
15604;BME280;7902;49.042;9.092;2023-04-25T09:06:41;98567.16;;;14.69;54.93
15604;BME280;7902;49.042;9.092;2023-04-25T09:09:08;98574.25;;;14.68;54.83
15604;BME280;7902;49.042;9.092;2023-04-25T09:11:36;98582.56;;;14.73;54.51
15604;BME280;7902;49.042;9.092;2023-04-25T09:14:22;98585.50;;;14.70;55.02
15604;BME280;7902;49.042;9.092;2023-04-25T09:16:58;98580.91;;;14.72;55.77
15604;BME280;7902;49.042;9.092;2023-04-25T09:19:32;98584.16;;;14.84;54.45
15604;BME280;7902;49.042;9.092;2023-04-25T09:22:00;98584.78;;;14.78;54.45
15604;BME280;7902;49.042;9.092;2023-04-25T09:24:42;98594.97;;;14.73;54.25
15604;BME280;7902;49.042;9.092;2023-04-25T09:27:10;98600.13;;;14.65;55.29
15604;BME280;7902;49.042;9.092;2023-04-25T09:29:39;98603.28;;;14.78;55.23
15604;BME280;7902;49.042;9.092;2023-04-25T09:32:15;98607.69;;;14.60;56.55
15604;BME280;7902;49.042;9.092;2023-04-25T09:34:51;98609.06;;;14.64;55.83
15604;BME280;7902;49.042;9.092;2023-04-25T09:39:56;98623.31;;;14.16;57.78
15604;BME280;7902;49.042;9.092;2023-04-25T09:42:25;98631.38;;;14.15;57.02
15604;BME280;7902;49.042;9.092;2023-04-25T09:44:54;98641.38;;;13.74;56.07
15604;BME280;7902;49.042;9.092;2023-04-25T09:47:22;98642.75;;;13.69;56.40
15604;BME280;7902;49.042;9.092;2023-04-25T09:49:50;98641.09;;;13.58;57.41
15604;BME280;7902;49.042;9.092;2023-04-25T09:52:21;98650.72;;;13.40;58.65
15604;BME280;7902;49.042;9.092;2023-04-25T09:54:48;98659.59;;;13.29;58.69
15604;BME280;7902;49.042;9.092;2023-04-25T09:57:16;98654.16;;;13.50;58.54
15604;BME280;7902;49.042;9.092;2023-04-25T09:59:44;98652.50;;;13.39;58.56
15604;BME280;7902;49.042;9.092;2023-04-25T10:02:11;98655.13;;;13.49;58.03
15604;BME280;7902;49.042;9.092;2023-04-25T10:04:38;98660.28;;;13.50;58.23
15604;BME280;7902;49.042;9.092;2023-04-25T10:07:08;98654.16;;;13.50;59.06
15604;BME280;7902;49.042;9.092;2023-04-25T10:09:37;98655.69;;;13.33;59.76
15604;BME280;7902;49.042;9.092;2023-04-25T10:12:03;98654.16;;;13.50;59.33
15604;BME280;7902;49.042;9.092;2023-04-25T10:14:31;98654.44;;;13.47;59.60
15604;BME280;7902;49.042;9.092;2023-04-25T10:16:58;98663.03;;;13.58;59.17
15604;BME280;7902;49.042;9.092;2023-04-25T10:19:25;98667.78;;;13.65;59.36
15604;BME280;7902;49.042;9.092;2023-04-25T10:22:04;98672.75;;;13.68;59.54
15604;BME280;7902;49.042;9.092;2023-04-25T10:24:31;98681.09;;;13.63;58.72
15604;BME280;7902;49.042;9.092;2023-04-25T10:26:58;98680.97;;;13.65;59.42
15604;BME280;7902;49.042;9.092;2023-04-25T10:29:25;98678.59;;;13.61;58.75
15604;BME280;7902;49.042;9.092;2023-04-25T10:31:51;98678.31;;;13.65;58.31
15604;BME280;7902;49.042;9.092;2023-04-25T10:34:18;98690.50;;;13.66;58.37
15604;BME280;7902;49.042;9.092;2023-04-25T10:36:51;98688.16;;;13.62;58.39
15604;BME280;7902;49.042;9.092;2023-04-25T10:39:24;98692.06;;;13.68;58.40
15604;BME280;7902;49.042;9.092;2023-04-25T10:41:55;98694.28;;;13.73;58.05
15604;BME280;7902;49.042;9.092;2023-04-25T10:44:21;98690.38;;;13.77;58.17
15604;BME280;7902;49.042;9.092;2023-04-25T10:46:47;98695.66;;;13.77;58.54
15604;BME280;7902;49.042;9.092;2023-04-25T10:52:15;98693.94;;;13.95;57.67
15604;BME280;7902;49.042;9.092;2023-04-25T10:54:55;98703.38;;;14.07;57.65
15604;BME280;7902;49.042;9.092;2023-04-25T11:05:09;98696.47;;;13.96;58.54
15604;BME280;7902;49.042;9.092;2023-04-25T11:07:46;98709.50;;;14.07;58.85
15604;BME280;7902;49.042;9.092;2023-04-25T11:10:15;98700.16;;;14.13;59.49
15604;BME280;7902;49.042;9.092;2023-04-25T11:12:41;98699.06;;;14.06;59.55
15604;BME280;7902;49.042;9.092;2023-04-25T11:15:07;98705.44;;;14.13;59.01
15604;BME280;7902;49.042;9.092;2023-04-25T11:17:33;98705.28;;;14.24;59.22
15604;BME280;7902;49.042;9.092;2023-04-25T11:19:59;98711.56;;;14.14;59.64
15604;BME280;7902;49.042;9.092;2023-04-25T11:22:27;98711.41;;;14.15;59.01
15604;BME280;7902;49.042;9.092;2023-04-25T11:24:53;98714.06;;;14.05;59.45
15604;BME280;7902;49.042;9.092;2023-04-25T11:27:19;98713.22;;;14.15;58.81
15604;BME280;7902;49.042;9.092;2023-04-25T11:29:46;98718.38;;;14.16;59.82
15604;BME280;7902;49.042;9.092;2023-04-25T11:32:18;98719.63;;;14.12;60.29
15604;BME280;7902;49.042;9.092;2023-04-25T11:34:44;98711.56;;;14.04;59.10
15604;BME280;7902;49.042;9.092;2023-04-25T11:37:11;98715.75;;;14.06;59.11
15604;BME280;7902;49.042;9.092;2023-04-25T11:39:38;98717.97;;;14.11;58.58
15604;BME280;7902;49.042;9.092;2023-04-25T11:42:05;98727.16;;;14.07;59.26
15604;BME280;7902;49.042;9.092;2023-04-25T11:44:31;98730.75;;;14.06;59.54
15604;BME280;7902;49.042;9.092;2023-04-25T11:46:57;98723.25;;;14.11;59.57
15604;BME280;7902;49.042;9.092;2023-04-25T11:49:23;98721.28;;;14.03;59.66
15604;BME280;7902;49.042;9.092;2023-04-25T11:51:50;98716.00;;;14.13;59.22
15604;BME280;7902;49.042;9.092;2023-04-25T11:54:16;98723.75;;;14.24;59.11
15604;BME280;7902;49.042;9.092;2023-04-25T11:56:43;98729.50;;;14.10;60.34
15604;BME280;7902;49.042;9.092;2023-04-25T11:59:10;98725.84;;;14.30;59.40
15604;BME280;7902;49.042;9.092;2023-04-25T12:01:37;98727.78;;;14.28;60.40
15604;BME280;7902;49.042;9.092;2023-04-25T12:04:21;98729.31;;;14.40;59.46
15604;BME280;7902;49.042;9.092;2023-04-25T12:06:53;98727.75;;;14.47;60.12
15604;BME280;7902;49.042;9.092;2023-04-25T12:09:21;98729.69;;;14.45;59.72
15604;BME280;7902;49.042;9.092;2023-04-25T12:11:54;98733.97;;;14.56;60.49
15604;BME280;7902;49.042;9.092;2023-04-25T12:14:22;98734.13;;;14.55;60.99
15604;BME280;7902;49.042;9.092;2023-04-25T12:16:55;98730.00;;;14.70;59.10
15604;BME280;7902;49.042;9.092;2023-04-25T12:19:21;98739.59;;;14.71;59.24
15604;BME280;7902;49.042;9.092;2023-04-25T12:21:48;98732.38;;;14.73;60.37
15604;BME280;7902;49.042;9.092;2023-04-25T12:24:22;98744.22;;;14.69;59.35
15604;BME280;7902;49.042;9.092;2023-04-25T12:26:51;98741.94;;;14.74;58.63
15604;BME280;7902;49.042;9.092;2023-04-25T12:29:22;98734.19;;;14.72;58.26
15604;BME280;7902;49.042;9.092;2023-04-25T12:31:49;98738.06;;;14.78;58.35
15604;BME280;7902;49.042;9.092;2023-04-25T12:34:15;98749.22;;;14.72;58.52
15604;BME280;7902;49.042;9.092;2023-04-25T12:36:41;98746.44;;;14.73;58.43
15604;BME280;7902;49.042;9.092;2023-04-25T12:39:07;98747.09;;;14.75;58.65
15604;BME280;7902;49.042;9.092;2023-04-25T12:41:33;98743.03;;;14.81;58.66
15604;BME280;7902;49.042;9.092;2023-04-25T12:43:59;98738.81;;;14.88;58.17
15604;BME280;7902;49.042;9.092;2023-04-25T12:46:25;98749.59;;;15.04;58.04
15604;BME280;7902;49.042;9.092;2023-04-25T12:48:51;98747.03;;;15.12;58.58
15604;BME280;7902;49.042;9.092;2023-04-25T12:51:17;98752.78;;;15.08;57.46
15604;BME280;7902;49.042;9.092;2023-04-25T12:53:43;98753.25;;;15.21;58.41
15604;BME280;7902;49.042;9.092;2023-04-25T12:56:09;98745.34;;;15.38;58.26
15604;BME280;7902;49.042;9.092;2023-04-25T12:58:35;98758.59;;;15.38;57.31
15604;BME280;7902;49.042;9.092;2023-04-25T13:01:01;98754.81;;;15.59;57.05
15604;BME280;7902;49.042;9.092;2023-04-25T13:03:27;98755.69;;;15.50;55.88
15604;BME280;7902;49.042;9.092;2023-04-25T13:05:53;98754.75;;;15.68;56.82
15604;BME280;7902;49.042;9.092;2023-04-25T13:08:19;98759.22;;;15.68;57.09
15604;BME280;7902;49.042;9.092;2023-04-25T13:10:45;98751.81;;;15.71;56.56
15604;BME280;7902;49.042;9.092;2023-04-25T13:13:11;98756.66;;;15.76;54.96
15604;BME280;7902;49.042;9.092;2023-04-25T13:15:37;98751.88;;;15.79;54.91
15604;BME280;7902;49.042;9.092;2023-04-25T13:18:03;98752.78;;;15.88;55.64
15604;BME280;7902;49.042;9.092;2023-04-25T13:20:31;98757.91;;;16.07;55.33